Time;durP1;ratioP1;P1;durP2;ratioP2;P2;SDS_P1;SDS_P2;PMS_P1;PMS_P2;Temp;Humidity;BMP_temperature;BMP_pressure;BME280_temperature;BME280_humidity;BME280_pressure;Samples;Min_cycle;Max_cycle;Signal;HPM_P1;HPM_P2
2023/12/10 00:01:15;;;;;;;153.43;70.35;;;102.40;2227.20;;;;;;5069179;28;20116;-65
2023/12/10 00:03:41;;;;;;;185.18;78.72;;;77.70;2227.20;;;;;;5071541;28;20044;-67
2023/12/10 00:06:07;;;;;;;281.40;86.03;;;102.50;2227.20;;;;;;5072376;28;20028;-64
2023/12/10 00:08:33;;;;;;;250.98;88.78;;;102.50;2227.20;;;;;;5071701;28;20025;-64
2023/12/10 00:10:59;;;;;;;183.20;83.13;;;102.50;2227.20;;;;;;5073426;28;20095;-65
2023/12/10 00:13:28;;;;;;;145.85;71.40;;;102.50;2227.20;;;;;;5089438;28;20487;-64
2023/12/10 00:15:53;;;;;;;158.52;69.53;;;102.50;2227.20;;;;;;5085370;28;20027;-64
2023/12/10 00:18:19;;;;;;;158.30;78.20;;;102.40;2227.20;;;;;;5084733;28;20020;-65
2023/12/10 00:20:45;;;;;;;158.52;76.65;;;77.60;2227.20;;;;;;5085493;28;20028;-65
2023/12/10 00:23:11;;;;;;;156.68;73.20;;;102.40;2227.20;;;;;;5060127;28;20367;-67
2023/12/10 00:25:43;;;;;;;140.20;65.93;;;77.70;2227.20;;;;;;5070611;28;20066;-65
2023/12/10 00:28:08;;;;;;;159.57;66.72;;;77.70;2227.20;;;;;;5086892;28;20035;-65
2023/12/10 00:30:36;;;;;;;153.63;64.78;;;77.50;2227.20;;;;;;5078915;28;20027;-65
2023/12/10 00:33:03;;;;;;;132.68;64.32;;;77.30;2227.20;;;;;;5088868;28;20081;-65
2023/12/10 00:35:29;;;;;;;134.13;63.40;;;77.20;2227.20;;;;;;5063435;28;20391;-65
2023/12/10 00:37:55;;;;;;;126.45;59.50;;;77.10;2227.20;;;;;;5081128;28;20078;-65
2023/12/10 00:40:21;;;;;;;125.28;59.72;;;76.90;2227.20;;;;;;5082051;28;20373;-66
2023/12/10 00:42:47;;;;;;;135.07;64.07;;;77.00;2227.20;;;;;;5070501;28;20061;-65
2023/12/10 00:45:13;;;;;;;144.48;64.93;;;77.20;2227.20;;;;;;5070376;28;20078;-65
2023/12/10 00:47:38;;;;;;;161.45;71.28;;;77.40;2227.20;;;;;;5084645;28;20024;-64
2023/12/10 00:50:05;;;;;;;143.88;68.22;;;77.30;2227.20;;;;;;5082335;28;20024;-64
2023/12/10 00:52:31;;;;;;;141.38;65.13;;;77.50;2227.20;;;;;;5070051;28;20617;-65
2023/12/10 00:54:56;;;;;;;149.15;68.68;;;77.60;2227.20;;;;;;5070500;28;20485;-66
2023/12/10 00:57:22;;;;;;;143.00;71.13;;;77.70;2227.20;;;;;;5069959;28;20124;-65
2023/12/10 00:59:48;;;;;;;150.32;81.80;;;77.70;2227.20;;;;;;5069670;28;20039;-66
2023/12/10 01:02:13;;;;;;;157.73;84.13;;;77.50;2227.20;;;;;;5083090;28;20101;-64
2023/12/10 01:04:39;;;;;;;115.57;56.20;;;77.40;2227.20;;;;;;5070406;28;20024;-66
2023/12/10 01:07:07;;;;;;;124.88;59.65;;;77.20;2227.20;;;;;;5069482;28;20048;-65
2023/12/10 01:09:35;;;;;;;124.78;59.05;;;77.10;2227.20;;;;;;5069783;28;20021;-66
2023/12/10 01:12:03;;;;;;;112.30;55.55;;;76.90;2227.20;;;;;;5058988;28;20108;-65
2023/12/10 01:14:29;;;;;;;109.28;52.20;;;76.90;2227.20;;;;;;5069984;28;20032;-65
2023/12/10 01:16:55;;;;;;;120.70;53.28;;;77.00;2227.20;;;;;;5083191;28;20157;-64
2023/12/10 01:19:22;;;;;;;109.85;53.63;;;77.20;2227.20;;;;;;5069872;28;20410;-65
2023/12/10 01:21:49;;;;;;;114.53;55.83;;;77.10;2227.20;;;;;;5069575;28;20033;-65
2023/12/10 01:24:18;;;;;;;132.57;56.15;;;76.90;2227.20;;;;;;5079387;28;20173;-66
2023/12/10 01:26:44;;;;;;;127.30;55.97;;;76.90;2227.20;;;;;;5073183;28;20090;-65
2023/12/10 01:29:10;;;;;;;105.70;49.60;;;76.90;2227.20;;;;;;5083727;28;20466;-65
2023/12/10 01:31:36;;;;;;;90.80;47.63;;;77.00;2227.20;;;;;;5080967;28;20543;-65
2023/12/10 01:34:03;;;;;;;94.22;45.50;;;52.10;2227.20;;;;;;5076063;28;20027;-66
2023/12/10 01:36:29;;;;;;;99.97;48.75;;;52.00;2227.20;;;;;;5078317;28;20028;-64
2023/12/10 01:38:56;;;;;;;88.88;45.15;;;52.00;2227.20;;;;;;5074196;28;20020;-65
2023/12/10 01:41:23;;;;;;;116.60;56.33;;;52.10;2227.20;;;;;;5089762;28;20351;-65
2023/12/10 01:43:49;;;;;;;106.85;48.20;;;52.10;2227.20;;;;;;5070673;28;20068;-64
2023/12/10 01:46:16;;;;;;;110.97;52.55;;;51.90;2227.20;;;;;;5069549;28;20052;-66
2023/12/10 01:48:44;;;;;;;124.32;54.33;;;51.80;2227.20;;;;;;5060357;28;20102;-66
2023/12/10 01:51:10;;;;;;;130.70;57.33;;;51.80;2227.20;;;;;;5073157;28;20473;-66
2023/12/10 01:53:38;;;;;;;128.13;58.08;;;51.90;2227.20;;;;;;5076316;28;20028;-65
2023/12/10 01:56:06;;;;;;;121.60;53.13;;;51.80;2227.20;;;;;;5089651;28;20056;-66
2023/12/10 01:58:32;;;;;;;120.72;53.88;;;51.70;2227.20;;;;;;5082915;28;20027;-65
2023/12/10 02:01:00;;;;;;;150.98;58.70;;;51.70;2227.20;;;;;;5069411;28;20470;-64
2023/12/10 02:03:27;;;;;;;123.93;57.70;;;51.80;2227.20;;;;;;5068963;28;20394;-65
2023/12/10 02:05:52;;;;;;;197.10;66.60;;;52.00;2227.20;;;;;;5082309;28;20023;-65
2023/12/10 02:08:19;;;;;;;161.43;62.50;;;76.80;2227.20;;;;;;5056385;28;20021;-65
2023/12/10 02:10:45;;;;;;;119.40;54.15;;;76.80;2227.20;;;;;;5069187;28;20021;-66
2023/12/10 02:13:11;;;;;;;121.88;53.47;;;52.10;2227.20;;;;;;5082474;28;20351;-66
2023/12/10 02:15:37;;;;;;;110.03;52.03;;;76.80;2227.20;;;;;;5069278;28;20032;-66
2023/12/10 02:18:03;;;;;;;180.90;60.92;;;52.10;2227.20;;;;;;5089449;28;20036;-65
2023/12/10 02:20:28;;;;;;;316.40;74.63;;;51.80;2227.20;;;;;;5089119;28;20105;-66
2023/12/10 02:23:17;;;;;;;155.20;51.92;;;52.00;2227.20;;;;;;5062745;28;20478;-65
2023/12/10 02:25:44;;;;;;;169.35;54.15;;;52.10;2227.20;;;;;;5065486;28;20051;-65
2023/12/10 02:28:10;;;;;;;143.32;50.25;;;51.70;2227.20;;;;;;5078526;28;20028;-65
2023/12/10 02:30:37;;;;;;;150.02;51.95;;;51.70;2227.20;;;;;;5088960;28;20028;-65
2023/12/10 02:33:03;;;;;;;129.65;53.65;;;51.70;2227.20;;;;;;5079522;28;20116;-65
2023/12/10 02:35:29;;;;;;;119.28;47.85;;;51.60;2227.20;;;;;;5082263;28;20028;-65
2023/12/10 02:37:55;;;;;;;112.05;48.03;;;51.30;2227.20;;;;;;5078752;28;20056;-64
2023/12/10 02:40:21;;;;;;;100.47;47.40;;;51.20;2227.20;;;;;;5075168;28;20059;-66
2023/12/10 02:42:47;;;;;;;121.90;45.55;;;51.50;2227.20;;;;;;5079894;28;20068;-65
2023/12/10 02:45:14;;;;;;;146.98;51.00;;;51.30;2227.20;;;;;;5068607;28;20024;-66
2023/12/10 02:47:40;;;;;;;127.05;55.22;;;51.20;2227.20;;;;;;5078583;28;20486;-66
2023/12/10 02:50:07;;;;;;;170.25;46.88;;;51.30;2227.20;;;;;;5088539;28;20031;-65
2023/12/10 02:52:36;;;;;;;270.10;64.28;;;51.50;2227.20;;;;;;5079547;28;20060;-65
2023/12/10 02:55:03;;;;;;;342.63;75.35;;;51.50;2227.20;;;;;;5079778;28;20024;-64
2023/12/10 02:57:28;;;;;;;118.90;49.30;;;51.80;2227.20;;;;;;5066751;28;20044;-64
2023/12/10 02:59:54;;;;;;;96.43;46.83;;;51.80;2227.20;;;;;;5082069;28;20474;-66
2023/12/10 03:02:20;;;;;;;102.15;43.78;;;51.80;2227.20;;;;;;5070028;28;20494;-65
2023/12/10 03:04:47;;;;;;;107.93;49.63;;;51.90;2227.20;;;;;;5078033;28;20036;-65
2023/12/10 03:07:13;;;;;;;120.80;54.47;;;51.80;2227.20;;;;;;5076787;28;20433;-65
2023/12/10 03:09:38;;;;;;;79.25;40.05;;;51.70;2227.20;;;;;;5079305;28;20115;-64
2023/12/10 03:12:05;;;;;;;119.95;44.60;;;51.80;2227.20;;;;;;5081055;28;20560;-65
2023/12/10 03:14:31;;;;;;;183.90;49.13;;;51.50;2227.20;;;;;;5085214;28;20020;-64
2023/12/10 03:16:57;;;;;;;190.93;54.03;;;51.40;2227.20;;;;;;5077925;28;20020;-65
2023/12/10 03:19:22;;;;;;;467.45;84.65;;;51.50;2227.20;;;;;;5074385;28;20032;-65
2023/12/10 03:21:48;;;;;;;101.72;44.22;;;51.60;2227.20;;;;;;5080226;28;20036;-64
2023/12/10 03:24:14;;;;;;;138.93;52.00;;;51.70;2227.20;;;;;;5080137;28;20024;-65
2023/12/10 03:26:40;;;;;;;108.32;46.08;;;51.60;2227.20;;;;;;5085627;28;20420;-65
2023/12/10 03:29:06;;;;;;;118.55;46.15;;;51.60;2227.20;;;;;;5080833;28;20493;-64
2023/12/10 03:31:31;;;;;;;88.15;40.60;;;51.70;2227.20;;;;;;5064452;28;20025;-65
2023/12/10 03:33:57;;;;;;;120.03;46.53;;;51.70;2227.20;;;;;;5076380;28;20020;-64
2023/12/10 03:36:23;;;;;;;158.38;53.33;;;51.60;2227.20;;;;;;5080712;28;20063;-65
2023/12/10 03:38:49;;;;;;;114.07;44.83;;;51.70;2227.20;;;;;;5072785;28;20026;-64
2023/12/10 03:41:15;;;;;;;304.83;70.97;;;51.70;2227.20;;;;;;5072280;28;20400;-66
2023/12/10 03:43:40;;;;;;;212.05;54.85;;;51.40;2227.20;;;;;;5077698;28;20035;-66
2023/12/10 03:46:06;;;;;;;135.95;43.13;;;51.50;2227.20;;;;;;5080306;28;20074;-66
2023/12/10 03:48:32;;;;;;;169.65;53.55;;;51.50;2227.20;;;;;;5071814;28;20051;-66
2023/12/10 03:50:58;;;;;;;231.68;61.17;;;51.60;2227.20;;;;;;5072035;28;20032;-65
2023/12/10 03:53:23;;;;;;;84.00;38.78;;;51.40;2227.20;;;;;;5070450;28;20059;-65
2023/12/10 03:55:49;;;;;;;98.97;41.13;;;51.50;2227.20;;;;;;5070526;28;20063;-66
2023/12/10 03:58:15;;;;;;;196.10;51.78;;;51.40;2227.20;;;;;;5076709;28;20012;-66
2023/12/10 04:00:41;;;;;;;242.63;60.72;;;51.30;2227.20;;;;;;5074307;28;20094;-66
2023/12/10 04:03:07;;;;;;;160.50;49.53;;;51.20;2227.20;;;;;;5077184;28;20050;-65
2023/12/10 04:05:33;;;;;;;162.13;80.10;;;51.30;2227.20;;;;;;5077543;28;20025;-65
2023/12/10 04:07:58;;;;;;;109.72;48.90;;;51.40;2227.20;;;;;;5077448;28;20874;-65
2023/12/10 04:10:25;;;;;;;83.25;42.45;;;51.40;2227.20;;;;;;5078318;28;20017;-65
2023/12/10 04:12:51;;;;;;;93.95;45.17;;;51.50;2227.20;;;;;;5077268;28;20035;-66
2023/12/10 04:15:17;;;;;;;140.27;46.80;;;51.70;2227.20;;;;;;5073762;28;20028;-64
2023/12/10 04:17:43;;;;;;;120.75;42.75;;;51.70;2227.20;;;;;;5075336;28;20043;-65
2023/12/10 04:20:10;;;;;;;109.32;42.55;;;51.60;2227.20;;;;;;5074536;28;20025;-63
2023/12/10 04:22:36;;;;;;;325.73;66.53;;;51.60;2227.20;;;;;;5074760;28;20032;-66
2023/12/10 04:25:02;;;;;;;111.10;45.20;;;51.40;2227.20;;;;;;5075512;28;20375;-64
2023/12/10 04:27:27;;;;;;;227.80;56.95;;;51.40;2227.20;;;;;;5079499;28;20032;-64
2023/12/10 04:29:53;;;;;;;121.55;50.63;;;51.50;2227.20;;;;;;5078794;28;20466;-65
2023/12/10 04:32:19;;;;;;;84.25;43.38;;;51.50;2227.20;;;;;;5064869;28;20478;-65
2023/12/10 04:34:45;;;;;;;128.40;50.03;;;51.50;2227.20;;;;;;5070651;28;20074;-66
2023/12/10 04:37:11;;;;;;;97.53;41.65;;;51.60;2227.20;;;;;;5088134;28;20024;-67
2023/12/10 04:39:37;;;;;;;93.85;43.83;;;51.60;2227.20;;;;;;5079546;28;20089;-64
2023/12/10 04:42:03;;;;;;;115.18;46.90;;;51.60;2227.20;;;;;;5070982;28;20029;-65
2023/12/10 04:44:28;;;;;;;90.95;41.45;;;51.60;2227.20;;;;;;5080099;28;20032;-65
2023/12/10 04:46:55;;;;;;;82.97;40.40;;;51.60;2227.20;;;;;;5086649;28;20025;-65
2023/12/10 04:49:20;;;;;;;112.57;40.47;;;51.40;2227.20;;;;;;5088943;28;20145;-65
2023/12/10 04:51:46;;;;;;;95.55;42.28;;;51.40;2227.20;;;;;;5087528;28;20110;-66
2023/12/10 04:54:12;;;;;;;98.97;43.03;;;51.40;2227.20;;;;;;5080748;28;20024;-65
2023/12/10 04:56:38;;;;;;;110.05;45.67;;;26.40;2201.60;;;;;;5070839;28;20529;-65
2023/12/10 04:59:04;;;;;;;102.88;42.40;;;26.40;2201.60;;;;;;5070490;28;20028;-66
2023/12/10 05:01:29;;;;;;;105.13;44.30;;;26.20;2201.60;;;;;;5065106;28;20116;-65
2023/12/10 05:03:55;;;;;;;100.13;41.72;;;26.10;2201.60;;;;;;5071058;28;20085;-65
2023/12/10 05:06:21;;;;;;;104.80;47.13;;;26.00;2201.60;;;;;;5069634;28;20032;-66
2023/12/10 05:08:47;;;;;;;85.15;40.85;;;26.00;2201.60;;;;;;5080734;28;20475;-66
2023/12/10 05:11:12;;;;;;;108.85;47.72;;;26.10;2201.60;;;;;;5086161;28;20027;-66
2023/12/10 05:13:38;;;;;;;111.13;47.25;;;26.30;2201.60;;;;;;5080820;28;20032;-65
2023/12/10 05:16:04;;;;;;;122.55;50.05;;;26.30;2201.60;;;;;;5086131;28;20028;-64
2023/12/10 05:18:30;;;;;;;141.35;51.85;;;26.30;2201.60;;;;;;5080766;28;20693;-65
2023/12/10 05:20:56;;;;;;;112.40;50.65;;;26.10;2201.60;;;;;;5090420;28;20048;-65
2023/12/10 05:23:22;;;;;;;95.35;47.15;;;26.30;2201.60;;;;;;5078405;28;20098;-65
2023/12/10 05:25:47;;;;;;;89.65;43.03;;;26.40;2201.60;;;;;;5087669;28;20027;-65
2023/12/10 05:28:13;;;;;;;70.40;37.42;;;26.30;2201.60;;;;;;5089829;28;20024;-64
2023/12/10 05:30:39;;;;;;;78.05;38.45;;;26.30;2201.60;;;;;;5089959;28;20032;-65
2023/12/10 05:33:04;;;;;;;77.45;38.22;;;26.50;2201.60;;;;;;5089350;28;20040;-66
2023/12/10 05:35:30;;;;;;;72.20;37.45;;;26.50;2201.60;;;;;;5072717;28;20101;-66
2023/12/10 05:37:56;;;;;;;71.28;38.15;;;26.50;2201.60;;;;;;5065799;28;20039;-64
2023/12/10 05:40:25;;;;;;;66.80;35.95;;;26.50;2201.60;;;;;;5064527;28;20016;-64
2023/12/10 05:42:51;;;;;;;72.65;38.38;;;51.20;2227.20;;;;;;5089699;28;20020;-66
2023/12/10 05:45:17;;;;;;;73.70;37.22;;;51.30;2227.20;;;;;;5075879;28;20030;-65
2023/12/10 05:47:43;;;;;;;86.10;42.25;;;51.30;2227.20;;;;;;5089772;28;20028;-66
2023/12/10 05:50:09;;;;;;;84.13;43.03;;;51.40;2227.20;;;;;;5089495;28;20480;-65
2023/12/10 05:52:35;;;;;;;78.72;41.05;;;51.40;2227.20;;;;;;5078721;28;20546;-65
2023/12/10 05:55:01;;;;;;;75.65;40.70;;;51.40;2227.20;;;;;;5069327;28;20116;-66
2023/12/10 05:57:27;;;;;;;77.28;39.58;;;51.50;2227.20;;;;;;5080505;28;20457;-64
2023/12/10 05:59:53;;;;;;;65.97;36.38;;;51.50;2227.20;;;;;;5074934;28;20047;-65
2023/12/10 06:02:21;;;;;;;74.30;35.67;;;51.50;2227.20;;;;;;5078781;28;20120;-64
2023/12/10 06:04:47;;;;;;;82.57;40.40;;;51.70;2227.20;;;;;;5069077;28;20062;-66
2023/12/10 06:07:12;;;;;;;82.35;42.85;;;51.70;2227.20;;;;;;5077911;28;20085;-65
2023/12/10 06:09:38;;;;;;;74.40;39.20;;;51.80;2227.20;;;;;;5056202;28;20067;-65
2023/12/10 06:12:04;;;;;;;84.72;41.05;;;51.70;2227.20;;;;;;5075365;28;20112;-65
2023/12/10 06:14:30;;;;;;;76.00;37.95;;;51.70;2227.20;;;;;;5077945;28;20033;-65
2023/12/10 06:16:56;;;;;;;71.18;37.72;;;51.60;2227.20;;;;;;5082604;28;20032;-65
2023/12/10 06:19:22;;;;;;;64.40;35.40;;;51.60;2227.20;;;;;;5080696;28;20031;-66
2023/12/10 06:21:47;;;;;;;64.15;35.08;;;51.60;2227.20;;;;;;5070882;28;20024;-65
2023/12/10 06:24:13;;;;;;;53.45;31.80;;;51.70;2227.20;;;;;;5080470;28;20063;-65
2023/12/10 06:26:39;;;;;;;54.22;30.63;;;51.80;2227.20;;;;;;5070769;28;20024;-65
2023/12/10 06:29:05;;;;;;;66.40;35.80;;;51.80;2227.20;;;;;;5086061;28;20096;-66
2023/12/10 06:31:31;;;;;;;59.42;32.13;;;51.80;2227.20;;;;;;5088929;28;20073;-66
2023/12/10 06:33:56;;;;;;;64.45;35.88;;;51.90;2227.20;;;;;;5071994;28;20024;-64
2023/12/10 06:36:22;;;;;;;58.72;33.42;;;51.90;2227.20;;;;;;5079076;28;20118;-66
2023/12/10 06:38:48;;;;;;;54.90;31.00;;;52.00;2227.20;;;;;;5089071;28;20055;-65
2023/12/10 06:41:14;;;;;;;57.40;30.45;;;51.80;2227.20;;;;;;5073518;28;20046;-65
2023/12/10 06:43:40;;;;;;;59.42;31.88;;;51.90;2227.20;;;;;;5067934;28;20036;-65
2023/12/10 06:46:06;;;;;;;53.08;32.45;;;52.00;2227.20;;;;;;5074126;28;20021;-65
2023/12/10 06:48:33;;;;;;;56.08;33.22;;;52.10;2227.20;;;;;;5087558;28;20106;-65
2023/12/10 06:51:00;;;;;;;54.38;29.35;;;76.90;2227.20;;;;;;5072696;28;20032;-65
2023/12/10 06:53:26;;;;;;;56.13;31.70;;;76.90;2227.20;;;;;;5072722;28;20024;-65
2023/12/10 06:55:52;;;;;;;52.95;30.30;;;76.80;2227.20;;;;;;5072269;28;20359;-66
2023/12/10 06:58:18;;;;;;;46.78;27.65;;;76.80;2227.20;;;;;;5079545;28;20027;-65
2023/12/10 07:00:43;;;;;;;54.95;32.35;;;77.00;2227.20;;;;;;5079058;28;20366;-65
2023/12/10 07:03:09;;;;;;;53.28;31.17;;;77.10;2227.20;;;;;;5076335;28;20375;-64
2023/12/10 07:05:38;;;;;;;61.63;33.33;;;77.20;2227.20;;;;;;5088945;28;20040;-64
2023/12/10 07:08:04;;;;;;;51.92;30.90;;;77.20;2227.20;;;;;;5078786;28;20032;-64
2023/12/10 07:10:30;;;;;;;61.75;37.63;;;77.20;2227.20;;;;;;5071961;28;20020;-65
2023/12/10 07:12:56;;;;;;;59.70;34.92;;;77.10;2227.20;;;;;;5084636;28;20031;-65
2023/12/10 07:15:22;;;;;;;49.25;29.08;;;77.10;2227.20;;;;;;5066583;28;20023;-66
2023/12/10 07:17:47;;;;;;;51.05;31.80;;;77.20;2227.20;;;;;;5064053;28;20098;-64
2023/12/10 07:20:13;;;;;;;66.35;40.35;;;77.20;2227.20;;;;;;5076997;28;20023;-65
2023/12/10 07:22:39;;;;;;;69.68;47.20;;;77.30;2227.20;;;;;;5080701;28;20041;-65
2023/12/10 07:25:05;;;;;;;83.78;51.28;;;77.40;2227.20;;;;;;5076122;28;20031;-64
2023/12/10 07:27:32;;;;;;;70.03;43.30;;;77.50;2227.20;;;;;;5092242;28;20020;-66
2023/12/10 07:29:58;;;;;;;52.85;31.50;;;77.50;2227.20;;;;;;5093069;28;20478;-65
2023/12/10 07:32:24;;;;;;;52.55;30.15;;;77.50;2227.20;;;;;;5087812;28;20028;-64
2023/12/10 07:34:50;;;;;;;61.65;38.15;;;77.40;2227.20;;;;;;5071277;28;20028;-64
2023/12/10 07:37:15;;;;;;;64.30;38.53;;;77.40;2227.20;;;;;;5084688;28;20028;-65
2023/12/10 07:39:41;;;;;;;121.93;85.75;;;77.40;2227.20;;;;;;5072014;28;20024;-64
2023/12/10 07:42:07;;;;;;;206.32;91.32;;;77.50;2227.20;;;;;;5084488;28;20028;-64
2023/12/10 07:44:33;;;;;;;368.42;181.75;;;77.60;2227.20;;;;;;5072112;28;20107;-64
2023/12/10 07:46:59;;;;;;;196.63;96.70;;;77.40;2227.20;;;;;;5082416;28;20034;-63
2023/12/10 07:49:25;;;;;;;89.00;45.70;;;77.60;2227.20;;;;;;5061653;28;20462;-64
2023/12/10 07:51:51;;;;;;;124.80;64.95;;;77.60;2227.20;;;;;;5063891;28;20039;-65
2023/12/10 07:54:17;;;;;;;224.85;109.32;;;77.70;2227.20;;;;;;5071471;28;20028;-64
2023/12/10 07:56:42;;;;;;;92.63;58.30;;;77.60;2227.20;;;;;;5082825;28;20096;-64
2023/12/10 07:59:08;;;;;;;58.60;34.63;;;77.60;2227.20;;;;;;5073368;28;20032;-64
2023/12/10 08:01:34;;;;;;;101.38;57.85;;;77.70;2227.20;;;;;;5091280;28;20024;-64
2023/12/10 08:04:00;;;;;;;67.18;34.50;;;77.60;2227.20;;;;;;5078502;28;20390;-64
2023/12/10 08:06:25;;;;;;;59.38;33.40;;;77.40;2227.20;;;;;;5072075;28;20016;-63
2023/12/10 08:08:51;;;;;;;89.55;50.65;;;77.30;2227.20;;;;;;5082664;28;20039;-64
2023/12/10 08:11:17;;;;;;;62.85;36.47;;;77.20;2227.20;;;;;;5077765;28;20027;-64
2023/12/10 08:13:44;;;;;;;65.57;37.20;;;77.40;2227.20;;;;;;5091812;28;20024;-64
2023/12/10 08:16:10;;;;;;;77.13;55.38;;;77.40;2227.20;;;;;;5072717;28;20504;-64
2023/12/10 08:18:36;;;;;;;58.90;37.80;;;77.50;2227.20;;;;;;5071376;28;20027;-63
2023/12/10 08:21:02;;;;;;;65.45;41.50;;;77.70;2227.20;;;;;;5082076;28;20037;-64
2023/12/10 08:23:28;;;;;;;109.63;69.82;;;102.40;2227.20;;;;;;5086643;28;20032;-64
2023/12/10 08:25:54;;;;;;;112.35;64.22;;;102.50;2227.20;;;;;;5069311;28;20020;-64
2023/12/10 08:28:20;;;;;;;53.22;31.55;;;102.70;2227.20;;;;;;5072798;28;20035;-64
2023/12/10 08:30:46;;;;;;;35.17;22.52;;;102.80;2227.20;;;;;;5088226;28;20012;-64
2023/12/10 08:33:11;;;;;;;38.45;21.88;;;103.00;2227.20;;;;;;5079923;28;20115;-65
2023/12/10 08:35:37;;;;;;;88.15;51.80;;;103.10;2227.20;;;;;;5088289;28;20107;-63
2023/12/10 08:38:03;;;;;;;64.68;38.00;;;103.10;2227.20;;;;;;5086706;28;20039;-63
2023/12/10 08:40:29;;;;;;;155.35;96.50;;;103.10;2227.20;;;;;;5071174;28;20025;-64
2023/12/10 08:42:54;;;;;;;73.10;44.30;;;103.30;2227.20;;;;;;5089592;28;20016;-64
2023/12/10 08:45:22;;;;;;;54.25;33.20;;;128.00;2252.80;;;;;;5090424;28;20031;-64
2023/12/10 08:47:48;;;;;;;69.65;47.60;;;103.20;2227.20;;;;;;5083097;28;20024;-64
2023/12/10 08:50:14;;;;;;;63.42;41.53;;;103.10;2227.20;;;;;;5070070;28;20421;-63
2023/12/10 08:52:40;;;;;;;248.55;129.77;;;103.30;2227.20;;;;;;5069905;28;20470;-65
2023/12/10 08:55:06;;;;;;;97.60;58.65;;;103.20;2227.20;;;;;;5069597;28;20029;-64
2023/12/10 08:57:32;;;;;;;135.95;84.10;;;128.20;2252.80;;;;;;5077569;28;20020;-64
2023/12/10 09:00:00;;;;;;;178.43;107.50;;;128.20;2252.80;;;;;;5089063;28;20077;-63
2023/12/10 09:02:27;;;;;;;372.52;225.98;;;128.30;2252.80;;;;;;5068275;28;20457;-64
2023/12/10 09:04:52;;;;;;;494.20;293.65;;;128.10;2252.80;;;;;;5062556;28;20367;-64
2023/12/10 09:07:18;;;;;;;421.52;227.18;;;128.20;2252.80;;;;;;5077756;28;20031;-63
2023/12/10 09:09:44;;;;;;;409.30;214.05;;;128.20;2252.80;;;;;;5076234;28;20025;-63
2023/12/10 09:12:10;;;;;;;576.28;335.00;;;128.30;2252.80;;;;;;5082032;28;20454;-64
2023/12/10 09:14:36;;;;;;;527.45;324.38;;;128.80;2252.80;;;;;;5069124;28;20029;-64
2023/12/10 09:17:02;;;;;;;474.50;293.77;;;153.60;2252.80;;;;;;5077676;28;20024;-63
2023/12/10 09:19:29;;;;;;;367.40;237.10;;;128.70;2252.80;;;;;;5088451;28;20423;-62
2023/12/10 09:21:55;;;;;;;338.70;231.07;;;128.50;2252.80;;;;;;5069216;28;20037;-62
2023/12/10 09:24:22;;;;;;;296.27;200.48;;;128.40;2252.80;;;;;;5084462;28;20040;-63
2023/12/10 09:26:48;;;;;;;280.98;190.38;;;128.60;2252.80;;;;;;5086349;28;20088;-66
2023/12/10 09:29:14;;;;;;;546.13;353.08;;;128.70;2252.80;;;;;;5083344;28;20043;-63
2023/12/10 09:31:40;;;;;;;366.42;250.88;;;128.60;2252.80;;;;;;5086066;28;20036;-67
2023/12/10 09:34:06;;;;;;;399.70;270.80;;;128.40;2252.80;;;;;;5081713;28;20059;-68
2023/12/10 09:36:31;;;;;;;363.40;255.07;;;128.50;2252.80;;;;;;5089492;28;20028;-64
2023/12/10 09:38:57;;;;;;;344.25;237.07;;;128.10;2252.80;;;;;;5087826;28;20051;-64
2023/12/10 09:41:23;;;;;;;316.13;223.70;;;103.20;2227.20;;;;;;5072894;28;20466;-68
2023/12/10 09:43:49;;;;;;;298.27;203.35;;;103.20;2227.20;;;;;;5080981;28;20603;-64
2023/12/10 09:46:15;;;;;;;240.70;158.68;;;103.00;2227.20;;;;;;5071735;28;20429;-64
2023/12/10 09:48:43;;;;;;;246.45;160.52;;;103.10;2227.20;;;;;;5075262;28;20508;-68
2023/12/10 09:51:09;;;;;;;217.30;142.07;;;103.20;2227.20;;;;;;5071208;28;20098;-62
2023/12/10 09:53:35;;;;;;;178.57;119.60;;;103.10;2227.20;;;;;;5076565;28;20401;-62
2023/12/10 09:56:01;;;;;;;217.93;139.32;;;103.30;2227.20;;;;;;5074326;28;20393;-63
2023/12/10 09:58:26;;;;;;;213.07;139.82;;;103.10;2227.20;;;;;;5079474;28;20066;-62
2023/12/10 10:00:52;;;;;;;216.80;142.23;;;103.00;2227.20;;;;;;5076374;28;20074;-66
2023/12/10 10:03:20;;;;;;;213.30;138.93;;;103.00;2227.20;;;;;;5081681;28;20083;-63
2023/12/10 10:05:46;;;;;;;211.25;138.75;;;103.00;2227.20;;;;;;5076672;28;20420;-63
2023/12/10 10:08:11;;;;;;;201.00;136.98;;;102.90;2227.20;;;;;;5083305;28;20111;-63
2023/12/10 10:10:37;;;;;;;233.38;145.10;;;102.80;2227.20;;;;;;5075318;28;20028;-63
2023/12/10 10:13:06;;;;;;;227.05;148.05;;;102.90;2227.20;;;;;;5069569;28;20082;-61
2023/12/10 10:15:33;;;;;;;211.48;141.73;;;102.80;2227.20;;;;;;5069745;28;20320;-68
2023/12/10 10:17:59;;;;;;;199.98;134.18;;;102.90;2227.20;;;;;;5078724;28;20628;-71
2023/12/10 10:20:26;;;;;;;275.23;182.68;;;102.90;2227.20;;;;;;5075971;28;20031;-62
2023/12/10 10:22:54;;;;;;;240.48;163.20;;;103.00;2227.20;;;;;;5081418;28;20154;-62
2023/12/10 10:25:20;;;;;;;230.98;150.70;;;103.30;2227.20;;;;;;5085854;28;20432;-63
2023/12/10 10:27:48;;;;;;;232.68;147.90;;;128.20;2252.80;;;;;;5077019;28;20035;-63
2023/12/10 10:30:14;;;;;;;227.32;145.15;;;103.30;2227.20;;;;;;5071060;28;20413;-62
2023/12/10 10:32:41;;;;;;;256.13;153.98;;;128.10;2252.80;;;;;;5087773;28;20028;-67
2023/12/10 10:35:08;;;;;;;248.68;160.55;;;128.40;2252.80;;;;;;5081627;28;20534;-61
2023/12/10 10:37:34;;;;;;;231.20;144.60;;;128.60;2252.80;;;;;;5074533;28;20528;-63
2023/12/10 10:40:00;;;;;;;204.23;135.07;;;128.60;2252.80;;;;;;5083449;28;20024;-62
2023/12/10 10:42:25;;;;;;;186.52;124.43;;;153.60;2252.80;;;;;;5075365;28;20031;-62
2023/12/10 10:44:51;;;;;;;198.77;134.60;;;128.80;2252.80;;;;;;5084749;28;20090;-63
2023/12/10 10:47:18;;;;;;;198.82;128.07;;;128.30;2252.80;;;;;;5092004;28;20027;-63
2023/12/10 10:49:51;;;;;;;188.27;122.68;;;128.50;2252.80;;;;;;5078505;28;20048;-63
2023/12/10 10:52:22;;;;;;;245.30;177.10;;;128.80;2252.80;;;;;;5071946;28;20052;-61
2023/12/10 10:54:50;;;;;;;235.27;166.27;;;128.50;2252.80;;;;;;5086417;28;20103;-62
2023/12/10 10:57:32;;;;;;;255.07;174.00;;;128.80;2252.80;;;;;;5075927;28;20424;-64
2023/12/10 10:59:58;;;;;;;238.25;163.02;;;128.80;2252.80;;;;;;5072156;28;20037;-63
2023/12/10 11:02:24;;;;;;;283.05;189.65;;;128.70;2252.80;;;;;;5086455;28;20052;-67
2023/12/10 11:04:53;;;;;;;252.77;173.15;;;128.90;2252.80;;;;;;5092171;28;20078;-65
2023/12/10 11:07:21;;;;;;;279.77;186.30;;;128.90;2252.80;;;;;;5090410;28;20024;-63
2023/12/10 11:10:01;;;;;;;262.13;167.63;;;128.90;2252.80;;;;;;5081010;28;20103;-64
2023/12/10 11:12:48;;;;;;;295.23;192.38;;;153.60;2252.80;;;;;;5092140;28;20024;-67
2023/12/10 11:15:17;;;;;;;264.05;175.18;;;128.90;2252.80;;;;;;5085067;28;20020;-63
2023/12/10 11:17:52;;;;;;;278.27;196.40;;;153.60;2252.80;;;;;;5090478;28;20020;-63
2023/12/10 11:20:40;;;;;;;256.48;174.20;;;153.70;2252.80;;;;;;5071415;28;20024;-63
2023/12/10 11:23:20;;;;;;;358.02;235.23;;;153.80;2252.80;;;;;;5080011;28;20037;-62
2023/12/10 11:25:47;;;;;;;233.35;160.57;;;153.90;2252.80;;;;;;5061069;28;20028;-62
2023/12/10 11:28:18;;;;;;;296.73;196.88;;;153.60;2252.80;;;;;;5070602;28;20033;-63
2023/12/10 11:30:45;;;;;;;407.80;258.85;;;154.00;2252.80;;;;;;5061702;28;20029;-62
2023/12/10 11:33:15;;;;;;;326.38;226.43;;;153.90;2252.80;;;;;;5072018;28;20471;-62
2023/12/10 11:35:41;;;;;;;262.55;184.43;;;154.00;2252.80;;;;;;5072715;28;20070;-63
2023/12/10 11:38:07;;;;;;;218.02;144.52;;;154.10;2252.80;;;;;;5076757;28;20033;-62
2023/12/10 11:40:33;;;;;;;267.08;182.50;;;153.90;2252.80;;;;;;5076849;28;20025;-61
2023/12/10 11:43:06;;;;;;;228.50;165.85;;;153.80;2252.80;;;;;;5073213;28;20436;-62
2023/12/10 11:45:32;;;;;;;167.23;114.55;;;153.90;2252.80;;;;;;5075722;28;20020;-61
2023/12/10 11:47:58;;;;;;;186.60;132.00;;;154.00;2252.80;;;;;;5078167;28;20024;-62
2023/12/10 11:50:24;;;;;;;201.93;136.98;;;154.10;2252.80;;;;;;5065930;28;20146;-61
2023/12/10 11:52:51;;;;;;;228.88;152.23;;;154.00;2252.80;;;;;;5063979;28;20024;-61